Time;durP1;ratioP1;P1;durP2;ratioP2;P2;SDS_P1;SDS_P2;PMS_P1;PMS_P2;Temp;Humidity;BMP_temperature;BMP_pressure;BME280_temperature;BME280_humidity;BME280_pressure;Samples;Min_cycle;Max_cycle;Signal;HPM_P1;HPM_P2
2021/01/11 00:00:28;;;;;;;251.40;48.45;;;;;;;-6.69;100.00;96213.53;1018356;29;20032;-68
2021/01/11 00:00:59;;;;;;;296.80;49.03;;;;;;;-6.69;100.00;96216.09;1025467;28;20039;-67
2021/01/11 00:01:29;;;;;;;201.77;47.50;;;;;;;-6.64;100.00;96216.44;1033297;28;20049;-68
2021/01/11 00:02:00;;;;;;;140.13;43.20;;;;;;;-6.63;100.00;96218.06;1034514;28;20038;-68
2021/01/11 00:02:30;;;;;;;146.07;44.23;;;;;;;-6.59;100.00;96219.38;1030094;28;20026;-67
2021/01/11 00:03:01;;;;;;;174.53;43.73;;;;;;;-6.64;100.00;96221.53;1019031;29;20063;-67
2021/01/11 00:03:32;;;;;;;393.83;53.73;;;;;;;-6.81;100.00;96218.00;1018763;29;20019;-68
2021/01/11 00:04:02;;;;;;;275.23;50.00;;;;;;;-6.78;100.00;96224.59;1019076;29;20039;-67
2021/01/11 00:04:33;;;;;;;277.70;51.47;;;;;;;-6.90;100.00;96201.84;1024309;28;20031;-67
2021/01/11 00:05:05;;;;;;;315.23;60.83;;;;;;;-6.79;100.00;96216.13;1018556;29;20060;-66
2021/01/11 00:05:38;;;;;;;305.33;59.65;;;;;;;-6.78;100.00;96217.72;1018944;29;20027;-65
2021/01/11 00:06:08;;;;;;;208.07;52.03;;;;;;;-6.77;100.00;96209.16;1023752;28;20101;-67
2021/01/11 00:06:40;;;;;;;195.07;47.00;;;;;;;-6.84;100.00;96194.53;1025973;28;20422;-68
2021/01/11 00:07:11;;;;;;;164.88;44.05;;;;;;;-6.79;100.00;96194.94;1022936;29;20027;-66
2021/01/11 00:07:42;;;;;;;177.40;45.83;;;;;;;-6.74;100.00;96206.31;1019691;28;20035;-64
2021/01/11 00:08:12;;;;;;;175.87;43.07;;;;;;;-6.82;100.00;96207.97;1022556;29;20031;-67
2021/01/11 00:08:43;;;;;;;227.67;44.87;;;;;;;-6.86;100.00;96211.75;1022433;28;20098;-68
2021/01/11 00:09:13;;;;;;;150.90;41.77;;;;;;;-6.81;100.00;96205.25;1022561;28;20125;-66
2021/01/11 00:09:43;;;;;;;351.43;49.80;;;;;;;-6.86;100.00;96207.44;1026431;28;20041;-67
2021/01/11 00:10:14;;;;;;;395.73;56.70;;;;;;;-6.88;100.00;96212.69;1018685;28;20070;-69
2021/01/11 00:10:45;;;;;;;325.67;52.83;;;;;;;-6.85;100.00;96219.25;1022647;28;20062;-67
2021/01/11 00:11:24;;;;;;;236.67;40.87;;;;;;;-7.01;100.00;96194.34;1027476;28;20653;-68
2021/01/11 00:11:57;;;;;;;118.72;38.63;;;;;;;-6.85;100.00;96210.81;1019723;29;20053;-68
2021/01/11 00:12:28;;;;;;;217.93;45.95;;;;;;;-6.84;100.00;96210.69;1020418;29;20054;-68
2021/01/11 00:12:58;;;;;;;149.83;39.93;;;;;;;-6.82;100.00;96208.75;1024123;28;20031;-64
2021/01/11 00:13:28;;;;;;;133.57;38.73;;;;;;;-6.80;100.00;96214.53;1023238;28;20031;-68
2021/01/11 00:13:59;;;;;;;165.63;37.63;;;;;;;-6.80;100.00;96211.19;1030758;28;20030;-67
2021/01/11 00:14:30;;;;;;;234.90;39.43;;;;;;;-6.92;100.00;96203.72;1026014;28;20065;-66
2021/01/11 00:15:00;;;;;;;130.63;35.77;;;;;;;-6.81;100.00;96214.66;1026366;28;20433;-66
2021/01/11 00:15:31;;;;;;;203.07;38.67;;;;;;;-6.93;100.00;96212.31;1026593;28;20296;-68
2021/01/11 00:16:01;;;;;;;295.10;42.10;;;;;;;-7.06;100.00;96208.50;1030150;28;20026;-68
2021/01/11 00:16:32;;;;;;;182.60;40.70;;;;;;;-7.01;100.00;96208.84;1028916;28;20026;-68
2021/01/11 00:17:02;;;;;;;107.87;38.07;;;;;;;-6.98;100.00;96211.13;1026413;28;20034;-66
2021/01/11 00:17:34;;;;;;;216.03;41.20;;;;;;;-7.14;100.00;96193.91;1022759;29;20030;-70
2021/01/11 00:18:07;;;;;;;213.45;44.65;;;;;;;-7.06;100.00;96211.84;1014797;29;20204;-67
2021/01/11 00:18:39;;;;;;;177.48;39.88;;;;;;;-7.17;100.00;96191.66;1011406;29;20048;-66
2021/01/11 00:19:10;;;;;;;225.88;41.88;;;;;;;-7.07;100.00;96206.91;1018608;29;20102;-68
2021/01/11 00:19:40;;;;;;;170.13;39.37;;;;;;;-7.05;100.00;96213.44;1021582;28;20121;-67
2021/01/11 00:20:11;;;;;;;168.57;42.93;;;;;;;-7.09;100.00;96212.13;1026629;28;20035;-67
2021/01/11 00:20:41;;;;;;;209.27;48.53;;;;;;;-7.05;100.00;96212.66;1018964;29;20038;-66
2021/01/11 00:21:15;;;;;;;298.10;47.60;;;;;;;-7.08;100.00;96213.72;1019673;28;20399;-66
2021/01/11 00:21:46;;;;;;;320.38;48.08;;;;;;;-7.15;100.00;96216.03;1022943;29;20146;-67
2021/01/11 00:22:17;;;;;;;236.50;42.30;;;;;;;-7.19;100.00;96221.56;1020005;28;20035;-67
2021/01/11 00:22:47;;;;;;;224.20;42.10;;;;;;;-7.38;100.00;96190.13;1019197;28;20046;-68
2021/01/11 00:23:18;;;;;;;401.50;50.57;;;;;;;-7.34;100.00;96205.94;1022237;28;20090;-68
2021/01/11 00:23:48;;;;;;;421.30;54.77;;;;;;;-7.48;100.00;96212.25;1022674;28;20035;-68
2021/01/11 00:24:24;;;;;;;324.40;50.90;;;;;;;-7.47;100.00;96210.53;1022750;28;20039;-67
2021/01/11 00:24:55;;;;;;;309.70;51.28;;;;;;;-7.40;100.00;96209.84;1022447;28;20073;-68
2021/01/11 00:25:25;;;;;;;260.70;46.20;;;;;;;-7.43;100.00;96209.31;1022522;29;20046;-67
2021/01/11 00:25:56;;;;;;;321.57;53.23;;;;;;;-7.43;100.00;96205.00;1018811;29;20032;-68
2021/01/11 00:26:26;;;;;;;195.27;49.63;;;;;;;-7.40;100.00;96209.84;1017556;29;20027;-66
2021/01/11 00:26:57;;;;;;;259.60;54.83;;;;;;;-7.39;100.00;96211.44;1018507;29;20032;-66
2021/01/11 00:27:27;;;;;;;383.73;62.77;;;;;;;-7.39;100.00;96205.53;1014976;29;20547;-69
2021/01/11 00:27:58;;;;;;;186.70;49.07;;;;;;;-7.36;100.00;96208.59;1010901;29;20520;-66
2021/01/11 00:28:28;;;;;;;178.70;46.73;;;;;;;-7.32;100.00;96203.22;1021647;28;20038;-67
2021/01/11 00:28:59;;;;;;;119.67;42.63;;;;;;;-7.28;100.00;96207.91;1018878;29;20027;-66
2021/01/11 00:29:29;;;;;;;139.20;42.93;;;;;;;-7.24;100.00;96208.41;1018756;29;20117;-65
2021/01/11 00:30:00;;;;;;;287.07;48.63;;;;;;;-7.32;100.00;96198.13;1018671;29;20054;-68
2021/01/11 00:30:33;;;;;;;180.50;45.00;;;;;;;-7.28;100.00;96209.66;1010897;29;20040;-67
2021/01/11 00:31:04;;;;;;;159.80;41.85;;;;;;;-7.24;100.00;96210.97;1012112;29;20108;-67
2021/01/11 00:31:35;;;;;;;154.93;39.70;;;;;;;-7.29;100.00;96211.41;1011608;29;20036;-65
2021/01/11 00:32:06;;;;;;;412.90;58.00;;;;;;;-7.40;100.00;96206.47;1019718;28;20043;-66
2021/01/11 00:32:37;;;;;;;126.43;40.87;;;;;;;-7.35;100.00;96205.09;1023109;29;20142;-69
2021/01/11 00:33:07;;;;;;;212.90;48.47;;;;;;;-7.36;100.00;96206.06;1023287;28;20035;-67
2021/01/11 00:33:38;;;;;;;191.07;48.00;;;;;;;-7.40;100.00;96204.72;1030403;28;20510;-69
2021/01/11 00:34:08;;;;;;;176.10;46.37;;;;;;;-7.36;100.00;96200.97;1027038;28;20050;-66
2021/01/11 00:34:39;;;;;;;207.57;44.57;;;;;;;-7.39;100.00;96197.88;1026509;28;20031;-67
2021/01/11 00:35:09;;;;;;;191.17;47.77;;;;;;;-7.41;100.00;96198.03;1020950;28;20058;-66
2021/01/11 00:35:40;;;;;;;199.20;48.57;;;;;;;-7.35;100.00;96206.84;1018984;29;20039;-69
2021/01/11 00:36:11;;;;;;;275.90;55.90;;;;;;;-7.47;100.00;96197.78;1014719;29;20480;-68
2021/01/11 00:37:09;;;;;;;241.50;41.80;;;;;;;-7.49;100.00;96205.56;1016227;29;20062;-66
2021/01/11 00:37:39;;;;;;;177.90;36.53;;;;;;;-7.54;100.00;96200.09;1018350;29;20040;-67
2021/01/11 00:38:09;;;;;;;202.73;38.33;;;;;;;-7.56;100.00;96206.25;1022335;29;20455;-67
2021/01/11 00:38:40;;;;;;;171.70;37.93;;;;;;;-7.59;100.00;96197.16;1022545;28;20035;-67
2021/01/11 00:39:10;;;;;;;130.80;35.83;;;;;;;-7.70;100.00;96187.13;1025721;28;20399;-67
2021/01/11 00:39:41;;;;;;;326.67;47.90;;;;;;;-7.74;100.00;96201.09;1015702;29;20079;-66
2021/01/11 00:40:12;;;;;;;221.57;40.30;;;;;;;-7.75;100.00;96200.25;1015157;29;20024;-65
2021/01/11 00:40:42;;;;;;;287.40;45.70;;;;;;;-7.82;100.00;96204.31;1015543;29;20043;-66
2021/01/11 00:41:19;;;;;;;315.37;48.30;;;;;;;-7.91;100.00;96203.41;1015734;29;20028;-67
2021/01/11 00:41:54;;;;;;;209.27;42.63;;;;;;;-7.88;100.00;96199.75;1017813;29;20038;-67
2021/01/11 00:42:25;;;;;;;185.27;40.33;;;;;;;-7.89;100.00;96203.25;1022444;28;20425;-66
2021/01/11 00:42:55;;;;;;;145.90;36.27;;;;;;;-7.92;100.00;96209.41;1024914;28;20035;-67
2021/01/11 00:43:26;;;;;;;98.37;33.93;;;;;;;-7.88;100.00;96199.75;1017907;28;20091;-67
2021/01/11 00:43:56;;;;;;;98.93;36.17;;;;;;;-7.87;100.00;96202.19;1015571;29;20523;-68
2021/01/11 00:44:28;;;;;;;85.93;33.40;;;;;;;-7.88;100.00;96200.56;1019243;29;20042;-67
2021/01/11 00:44:58;;;;;;;187.73;41.08;;;;;;;-7.89;100.00;96209.13;1021774;28;20046;-66
2021/01/11 00:45:29;;;;;;;98.63;33.03;;;;;;;-7.90;100.00;96199.91;1022732;28;20038;-69
2021/01/11 00:45:59;;;;;;;217.43;41.57;;;;;;;-7.99;100.00;96198.16;1019406;29;20175;-68
2021/01/11 00:46:30;;;;;;;162.67;37.00;;;;;;;-8.03;100.00;96201.13;1022757;28;20031;-65
2021/01/11 00:47:01;;;;;;;210.03;40.53;;;;;;;-8.08;100.00;96204.06;1018866;29;20031;-66
2021/01/11 00:47:37;;;;;;;246.48;41.40;;;;;;;-8.13;100.00;96190.94;1019376;29;20028;-67
2021/01/11 00:48:07;;;;;;;178.60;37.80;;;;;;;-8.13;100.00;96194.28;1023336;29;20035;-65
2021/01/11 00:48:38;;;;;;;157.33;37.90;;;;;;;-8.15;100.00;96187.72;1022484;28;20027;-67
2021/01/11 00:49:10;;;;;;;175.83;36.60;;;;;;;-8.09;100.00;96203.25;1024636;28;20443;-68
2021/01/11 00:49:40;;;;;;;121.95;33.97;;;;;;;-8.15;100.00;96192.81;1023401;29;20031;-66
2021/01/11 00:50:11;;;;;;;115.83;37.00;;;;;;;-8.01;100.00;96207.69;1017215;29;20020;-67
2021/01/11 00:50:42;;;;;;;173.67;40.50;;;;;;;-8.07;100.00;96206.50;1023539;28;20059;-67
2021/01/11 00:51:12;;;;;;;125.07;36.97;;;;;;;-8.02;100.00;96207.81;1025555;28;20031;-66
2021/01/11 00:51:43;;;;;;;167.10;39.27;;;;;;;-8.03;100.00;96207.00;1023300;28;20487;-67
2021/01/11 00:52:13;;;;;;;157.23;40.43;;;;;;;-8.02;100.00;96208.63;1023234;29;20043;-67
2021/01/11 00:52:44;;;;;;;102.33;35.30;;;;;;;-8.08;100.00;96202.34;1019225;29;20023;-68
2021/01/11 00:53:14;;;;;;;203.17;40.33;;;;;;;-8.11;100.00;96212.00;1023528;28;20103;-65
2021/01/11 00:53:45;;;;;;;87.93;32.93;;;;;;;-8.09;100.00;96208.34;1027072;28;20090;-66
2021/01/11 00:54:15;;;;;;;159.20;37.10;;;;;;;-8.13;100.00;96201.13;1027271;28;20114;-66
2021/01/11 00:54:46;;;;;;;135.63;35.07;;;;;;;-8.14;100.00;96209.72;1015546;29;20467;-66
2021/01/11 00:55:16;;;;;;;114.20;34.70;;;;;;;-8.15;100.00;96211.47;1020648;28;20428;-65
2021/01/11 00:55:47;;;;;;;144.20;35.53;;;;;;;-8.21;100.00;96208.66;1019482;29;20024;-65
2021/01/11 00:56:18;;;;;;;122.20;34.17;;;;;;;-8.26;100.00;96192.97;1023397;28;20057;-65
2021/01/11 00:56:49;;;;;;;130.40;37.10;;;;;;;-8.20;100.00;96210.25;1018783;29;20028;-67
2021/01/11 00:57:19;;;;;;;127.43;37.37;;;;;;;-8.20;100.00;96216.13;1014689;29;20029;-68
2021/01/11 00:57:50;;;;;;;119.67;37.23;;;;;;;-8.21;100.00;96209.44;1019566;29;20019;-67
2021/01/11 00:58:20;;;;;;;97.13;35.43;;;;;;;-8.21;100.00;96216.28;1023621;28;20023;-67
2021/01/11 00:58:51;;;;;;;147.23;38.60;;;;;;;-8.31;100.00;96204.34;1019477;29;20035;-65
2021/01/11 00:59:21;;;;;;;153.10;40.57;;;;;;;-8.21;100.00;96216.28;1022460;28;20053;-66
2021/01/11 00:59:52;;;;;;;130.23;39.30;;;;;;;-8.28;100.00;96202.47;1027412;28;20078;-66
2021/01/11 01:00:22;;;;;;;152.97;41.83;;;;;;;-8.23;100.00;96216.41;1023565;28;20608;-67
2021/01/11 01:00:52;;;;;;;106.97;36.90;;;;;;;-8.22;100.00;96217.19;1025332;28;20034;-65
2021/01/11 01:01:23;;;;;;;143.00;36.43;;;;;;;-8.21;100.00;96214.53;1023420;29;20057;-66
2021/01/11 01:01:58;;;;;;;116.17;39.87;;;;;;;-8.24;100.00;96217.34;1019567;29;20020;-67
2021/01/11 01:02:28;;;;;;;97.95;34.38;;;;;;;-8.22;100.00;96218.00;1018090;28;20024;-66
2021/01/11 01:02:59;;;;;;;123.30;35.87;;;;;;;-8.22;100.00;96214.66;1020097;29;20039;-66
2021/01/11 01:03:29;;;;;;;203.33;39.60;;;;;;;-8.24;100.00;96214.81;1020662;28;20731;-67
2021/01/11 01:03:59;;;;;;;141.37;39.43;;;;;;;-8.24;100.00;96207.16;1027382;28;20015;-66
2021/01/11 01:04:30;;;;;;;121.63;34.73;;;;;;;-8.26;100.00;96215.88;1034295;28;20815;-67
2021/01/11 01:05:00;;;;;;;95.13;31.70;;;;;;;-8.27;100.00;96220.16;1035285;28;20574;-66
2021/01/11 01:05:31;;;;;;;127.07;35.07;;;;;;;-8.30;100.00;96220.44;1035555;28;20040;-68
2021/01/11 01:06:02;;;;;;;171.47;37.30;;;;;;;-8.43;100.00;96208.00;1033755;28;20061;-65
2021/01/11 01:06:32;;;;;;;187.20;37.33;;;;;;;-8.35;100.00;96217.47;1030586;28;20101;-67
2021/01/11 01:07:03;;;;;;;97.67;33.97;;;;;;;-8.36;100.00;96215.88;1027431;28;20053;-67
2021/01/11 01:07:33;;;;;;;170.00;36.37;;;;;;;-8.36;100.00;96214.13;1027187;28;20118;-67
2021/01/11 01:08:07;;;;;;;149.23;36.20;;;;;;;-8.51;100.00;96195.16;1019918;29;20020;-66
2021/01/11 01:08:38;;;;;;;193.48;40.42;;;;;;;-8.40;100.00;96212.81;1019401;29;20020;-65
2021/01/11 01:09:09;;;;;;;284.63;44.83;;;;;;;-8.39;100.00;96211.88;1023109;29;20027;-66
2021/01/11 01:09:39;;;;;;;168.73;38.20;;;;;;;-8.39;100.00;96216.97;1023193;29;20086;-66
2021/01/11 01:10:12;;;;;;;267.60;45.20;;;;;;;-8.49;100.00;96198.34;1023315;29;20020;-66
2021/01/11 01:10:43;;;;;;;204.10;43.13;;;;;;;-8.39;100.00;96213.63;1015203;29;20500;-65
2021/01/11 01:11:13;;;;;;;247.50;44.40;;;;;;;-8.53;100.00;96196.22;1016399;29;20028;-65
2021/01/11 01:11:44;;;;;;;164.07;38.53;;;;;;;-8.41;100.00;96218.84;1015969;29;20480;-66
2021/01/11 01:12:14;;;;;;;147.47;39.80;;;;;;;-8.41;100.00;96213.75;1019614;28;20522;-68
2021/01/11 01:12:45;;;;;;;125.43;40.50;;;;;;;-8.41;100.00;96213.75;1026026;28;20027;-68
2021/01/11 01:13:15;;;;;;;186.80;40.13;;;;;;;-8.41;100.00;96210.41;1027349;28;20019;-66
2021/01/11 01:13:48;;;;;;;198.23;37.30;;;;;;;-8.49;100.00;96203.44;1023454;29;20027;-66
2021/01/11 01:14:24;;;;;;;116.30;36.20;;;;;;;-8.42;100.00;96212.13;1020014;28;20193;-66
2021/01/11 01:14:55;;;;;;;185.00;43.60;;;;;;;-8.40;100.00;96217.91;1028112;28;20026;-68
2021/01/11 01:15:25;;;;;;;149.30;41.27;;;;;;;-8.37;100.00;96209.19;1024577;28;20023;-66
2021/01/11 01:15:56;;;;;;;183.60;40.47;;;;;;;-8.40;100.00;96220.44;1019325;29;20514;-66
2021/01/11 01:16:27;;;;;;;129.37;38.50;;;;;;;-8.52;100.00;96195.25;1018543;29;20096;-67
2021/01/11 01:16:57;;;;;;;160.10;41.30;;;;;;;-8.45;100.00;96204.78;1015119;29;20468;-65
2021/01/11 01:17:28;;;;;;;214.03;44.63;;;;;;;-8.38;100.00;96223.69;1019139;29;20357;-66
2021/01/11 01:17:59;;;;;;;181.93;43.80;;;;;;;-8.38;100.00;96218.59;1019919;29;20416;-66
2021/01/11 01:18:30;;;;;;;159.07;40.47;;;;;;;-8.49;100.00;96205.97;1027321;28;20778;-67
2021/01/11 01:19:00;;;;;;;228.80;47.00;;;;;;;-8.55;100.00;96207.31;1023423;28;20023;-66
2021/01/11 01:19:31;;;;;;;168.13;41.13;;;;;;;-8.42;100.00;96216.41;1018122;29;20276;-67
2021/01/11 01:20:06;;;;;;;120.10;40.27;;;;;;;-8.41;100.00;96216.31;1018971;29;20032;-67
2021/01/11 01:20:36;;;;;;;113.68;40.25;;;;;;;-8.33;100.00;96216.41;1018814;29;20138;-66
2021/01/11 01:21:07;;;;;;;99.17;38.00;;;;;;;-8.31;100.00;96214.53;1020560;28;20032;-66
2021/01/11 01:21:37;;;;;;;126.90;40.57;;;;;;;-8.28;100.00;96217.72;1019665;29;20035;-66
2021/01/11 01:22:08;;;;;;;122.77;37.80;;;;;;;-8.26;100.00;96220.97;1019578;29;20884;-66
2021/01/11 01:22:38;;;;;;;123.53;35.67;;;;;;;-8.26;100.00;96215.88;1019390;29;20118;-66
2021/01/11 01:23:09;;;;;;;146.87;39.77;;;;;;;-8.30;100.00;96216.13;1024513;28;20424;-66
2021/01/11 01:23:39;;;;;;;141.00;39.93;;;;;;;-8.31;100.00;96214.53;1027456;28;20054;-67
2021/01/11 01:24:10;;;;;;;148.00;37.43;;;;;;;-8.35;100.00;96222.56;1027113;28;20026;-66
2021/01/11 01:24:40;;;;;;;117.43;34.77;;;;;;;-8.45;100.00;96199.72;1026974;28;20139;-66
2021/01/11 01:25:11;;;;;;;105.43;36.67;;;;;;;-8.31;100.00;96217.09;1027508;28;20032;-66
2021/01/11 01:25:42;;;;;;;102.47;39.77;;;;;;;-8.27;100.00;96216.81;1027317;28;20771;-66
2021/01/11 01:26:12;;;;;;;204.07;40.63;;;;;;;-8.34;100.00;96216.53;1026895;28;20039;-67
2021/01/11 01:26:46;;;;;;;183.10;39.57;;;;;;;-8.42;100.00;96212.13;1021150;28;20085;-67
2021/01/11 01:27:25;;;;;;;101.45;35.00;;;;;;;-8.36;100.00;96216.66;1021094;29;20101;-66
2021/01/11 01:27:56;;;;;;;185.43;36.40;;;;;;;-8.36;100.00;96221.75;1021109;28;20035;-66
2021/01/11 01:28:26;;;;;;;98.63;31.47;;;;;;;-8.41;100.00;96215.50;1020706;29;20420;-66
2021/01/11 01:28:57;;;;;;;117.10;34.23;;;;;;;-8.51;100.00;96204.53;1017129;29;20631;-66
2021/01/11 01:29:27;;;;;;;182.17;38.30;;;;;;;-8.48;100.00;96216.94;1015461;29;20116;-66
2021/01/11 01:29:58;;;;;;;165.57;36.43;;;;;;;-8.52;100.00;96221.50;1020297;28;20034;-67
2021/01/11 01:30:28;;;;;;;125.60;35.73;;;;;;;-8.55;100.00;96214.13;1023615;28;20019;-65
2021/01/11 01:30:59;;;;;;;157.47;39.07;;;;;;;-8.57;100.00;96216.03;1031169;28;20492;-66
2021/01/11 01:31:29;;;;;;;90.27;32.27;;;;;;;-8.59;100.00;96216.13;1030870;28;20026;-65
2021/01/11 01:32:00;;;;;;;100.60;34.27;;;;;;;-8.57;100.00;96219.38;1019283;29;20070;-64
2021/01/11 01:32:30;;;;;;;151.10;35.93;;;;;;;-8.55;100.00;96222.59;1019445;29;20059;-66
2021/01/11 01:33:04;;;;;;;133.00;37.43;;;;;;;-8.53;100.00;96224.19;1019740;29;20661;-66
2021/01/11 01:33:35;;;;;;;123.63;35.28;;;;;;;-8.53;100.00;96222.44;1026984;28;20027;-67
2021/01/11 01:34:05;;;;;;;152.40;36.70;;;;;;;-8.64;100.00;96220.03;1027824;28;20050;-66
2021/01/11 01:34:36;;;;;;;143.50;39.57;;;;;;;-8.62;100.00;96225.78;1031416;28;20104;-66
2021/01/11 01:35:07;;;;;;;93.53;32.20;;;;;;;-8.65;100.00;96215.84;1025395;28;20027;-67
2021/01/11 01:35:37;;;;;;;90.68;33.35;;;;;;;-8.61;100.00;96217.22;1019569;29;20143;-65
2021/01/11 01:36:08;;;;;;;99.50;35.37;;;;;;;-8.61;100.00;96222.31;1019693;28;20427;-65
2021/01/11 01:36:39;;;;;;;103.63;34.63;;;;;;;-8.59;100.00;96215.34;1023561;28;20029;-67
2021/01/11 01:37:09;;;;;;;115.53;35.63;;;;;;;-8.59;100.00;96215.34;1023653;28;20038;-67
2021/01/11 01:37:40;;;;;;;225.67;42.33;;;;;;;-8.71;100.00;96208.78;1027472;28;20043;-65
2021/01/11 01:38:10;;;;;;;129.73;39.80;;;;;;;-8.67;100.00;96212.66;1023308;28;20176;-68
2021/01/11 01:38:41;;;;;;;163.83;40.03;;;;;;;-8.63;100.00;96224.16;1022931;28;20031;-67
2021/01/11 01:39:17;;;;;;;238.87;49.80;;;;;;;-8.60;100.00;96218.81;1023195;29;20771;-66
2021/01/11 01:39:48;;;;;;;201.07;46.50;;;;;;;-8.60;100.00;96219.63;1017169;28;20745;-68
2021/01/11 01:40:18;;;;;;;158.60;40.10;;;;;;;-8.70;100.00;96210.38;1016018;29;20070;-66
2021/01/11 01:40:49;;;;;;;274.07;45.03;;;;;;;-8.63;100.00;96219.09;1019193;29;20533;-67
2021/01/11 01:41:19;;;;;;;238.70;47.20;;;;;;;-8.64;100.00;96217.50;1019289;29;20066;-66
2021/01/11 01:41:50;;;;;;;232.63;47.07;;;;;;;-8.65;100.00;96214.16;1024180;28;20655;-66
2021/01/11 01:42:20;;;;;;;133.87;40.70;;;;;;;-8.63;100.00;96206.38;1031280;28;20023;-67
2021/01/11 01:42:54;;;;;;;167.63;43.03;;;;;;;-8.60;100.00;96213.75;1027112;28;20030;-65
2021/01/11 01:43:25;;;;;;;200.63;44.13;;;;;;;-8.63;100.00;96206.38;1028760;28;20049;-68
2021/01/11 01:43:55;;;;;;;200.57;43.20;;;;;;;-8.56;100.00;96215.06;1027196;28;20562;-67
2021/01/11 01:44:26;;;;;;;141.27;39.73;;;;;;;-8.58;100.00;96211.88;1027725;28;20018;-66
2021/01/11 01:44:56;;;;;;;179.87;39.33;;;;;;;-8.61;100.00;96209.59;1026532;28;20113;-67
2021/01/11 01:45:32;;;;;;;162.27;37.17;;;;;;;-8.63;100.00;96208.91;1026382;28;20031;-66
2021/01/11 01:46:04;;;;;;;214.95;41.33;;;;;;;-8.62;100.00;96215.59;1035310;28;20075;-66
2021/01/11 01:46:34;;;;;;;240.65;42.70;;;;;;;-8.65;100.00;96215.84;1027353;28;20027;-64
2021/01/11 01:47:05;;;;;;;127.57;38.47;;;;;;;-8.64;100.00;96212.41;1022666;28;20027;-66
2021/01/11 01:47:35;;;;;;;237.10;41.33;;;;;;;-8.69;100.00;96202.59;1015256;29;20028;-66
2021/01/11 01:48:06;;;;;;;362.43;51.03;;;;;;;-8.72;100.00;96200.31;1015309;29;20028;-67
2021/01/11 01:48:37;;;;;;;215.57;44.20;;;;;;;-8.64;100.00;96212.41;1016121;29;20701;-66
2021/01/11 01:49:07;;;;;;;190.90;42.10;;;;;;;-8.68;100.00;96199.16;1015010;29;20049;-66
2021/01/11 01:49:38;;;;;;;287.07;48.73;;;;;;;-8.64;100.00;96207.31;1022877;29;20016;-65
2021/01/11 01:50:08;;;;;;;279.47;47.70;;;;;;;-8.64;100.00;96207.31;1027080;28;20019;-66
2021/01/11 01:50:40;;;;;;;196.07;42.30;;;;;;;-8.65;100.00;96203.16;1019351;29;20038;-68
2021/01/11 01:51:11;;;;;;;160.68;40.75;;;;;;;-8.59;100.00;96213.59;1023121;28;20031;-66
2021/01/11 01:51:47;;;;;;;128.32;40.17;;;;;;;-8.54;100.00;96210.66;1023045;29;20615;-66
2021/01/11 01:52:18;;;;;;;185.13;42.67;;;;;;;-8.48;100.00;96207.59;1022844;29;20058;-66
2021/01/11 01:52:49;;;;;;;267.55;43.40;;;;;;;-8.45;100.00;96207.34;1027024;28;20027;-67
2021/01/11 01:53:19;;;;;;;202.33;40.97;;;;;;;-8.44;100.00;96211.47;1027315;28;20115;-66
2021/01/11 01:53:50;;;;;;;339.10;48.33;;;;;;;-8.50;100.00;96212.00;1028188;28;20386;-66
2021/01/11 01:54:20;;;;;;;249.70;47.63;;;;;;;-8.48;100.00;96210.16;1027290;28;20025;-67
2021/01/11 01:54:51;;;;;;;183.97;41.53;;;;;;;-8.47;100.00;96209.19;1023307;28;20034;-65
2021/01/11 01:55:21;;;;;;;193.37;46.97;;;;;;;-8.53;100.00;96194.47;1022844;28;20427;-67
2021/01/11 01:55:52;;;;;;;151.23;40.57;;;;;;;-8.48;100.00;96196.59;1023228;29;20023;-66
2021/01/11 01:56:24;;;;;;;140.00;42.33;;;;;;;-8.39;100.00;96205.97;1018737;29;20075;-66
2021/01/11 01:56:54;;;;;;;166.63;41.28;;;;;;;-8.43;100.00;96199.56;1022703;29;20125;-66
2021/01/11 01:57:25;;;;;;;208.47;42.93;;;;;;;-8.47;100.00;96188.84;1022577;29;20035;-67
2021/01/11 01:57:56;;;;;;;181.50;40.80;;;;;;;-8.44;100.00;96195.41;1019402;29;20563;-66
2021/01/11 01:58:26;;;;;;;226.20;45.33;;;;;;;-8.38;100.00;96213.50;1026633;28;20046;-66
2021/01/11 01:58:57;;;;;;;122.27;37.23;;;;;;;-8.39;100.00;96206.78;1027116;28;20031;-66
2021/01/11 01:59:27;;;;;;;198.33;44.43;;;;;;;-8.36;100.00;96211.56;1022745;28;20007;-66
2021/01/11 01:59:58;;;;;;;167.37;45.10;;;;;;;-8.34;100.00;96209.72;1023297;29;20027;-68
2021/01/11 02:00:29;;;;;;;257.07;48.73;;;;;;;-8.33;100.00;96213.84;1027502;28;20011;-66
2021/01/11 02:00:59;;;;;;;150.27;40.03;;;;;;;-8.34;100.00;96204.63;1026997;28;20266;-66
2021/01/11 02:01:30;;;;;;;160.30;39.80;;;;;;;-8.27;100.00;96209.19;1022993;29;20126;-66
2021/01/11 02:02:00;;;;;;;123.73;37.47;;;;;;;-8.36;100.00;96205.69;1015575;29;20008;-65
2021/01/11 02:02:31;;;;;;;147.30;41.93;;;;;;;-8.40;100.00;96189.91;1019129;29;20016;-66
2021/01/11 02:03:01;;;;;;;272.83;45.70;;;;;;;-8.33;100.00;96201.13;1031163;28;20025;-65
2021/01/11 02:03:32;;;;;;;216.40;45.23;;;;;;;-8.30;100.00;96211.03;1023106;29;20023;-68
2021/01/11 02:04:03;;;;;;;309.43;56.47;;;;;;;-8.23;100.00;96206.22;1023115;29;20023;-66
2021/01/11 02:04:42;;;;;;;281.00;53.78;;;;;;;-8.19;100.00;96212.66;1024138;28;20046;-66
2021/01/11 02:05:13;;;;;;;291.93;54.70;;;;;;;-8.24;100.00;96193.66;1028365;28;20037;-66
2021/01/11 02:05:43;;;;;;;221.17;47.73;;;;;;;-8.11;100.00;96206.91;1025698;28;20038;-67
2021/01/11 02:06:14;;;;;;;185.13;46.50;;;;;;;-8.17;100.00;96192.16;1029366;28;20023;-66
2021/01/11 02:06:44;;;;;;;225.00;45.07;;;;;;;-8.11;100.00;96201.81;1022870;29;20124;-66
2021/01/11 02:07:42;;;;;;;150.53;41.07;;;;;;;-8.01;100.00;96214.50;1019374;28;20092;-66
2021/01/11 02:08:51;;;;;;;102.45;36.65;;;;;;;-8.00;100.00;96209.28;1015184;29;20016;-66
2021/01/11 02:09:53;;;;;;;147.30;36.15;;;;;;;-7.98;100.00;96214.25;1029644;28;20032;-67
2021/01/11 02:11:05;;;;;;;193.70;38.05;;;;;;;-7.95;100.00;96216.50;1023069;28;20023;-66
2021/01/11 02:12:01;;;;;;;215.77;44.10;;;;;;;-7.95;100.00;96214.75;1016018;29;20509;-67
2021/01/11 02:12:58;;;;;;;123.45;37.00;;;;;;;-7.97;100.00;96211.56;1020473;28;20029;-67
2021/01/11 02:13:38;;;;;;;132.25;38.75;;;;;;;-7.97;100.00;96209.03;1021967;29;20030;-68
2021/01/11 02:14:35;;;;;;;139.00;37.78;;;;;;;-8.01;100.00;96210.25;1023857;28;20039;-66
2021/01/11 02:15:15;;;;;;;162.60;34.65;;;;;;;-7.90;100.00;96214.38;1019848;29;20554;-66
2021/01/11 02:16:11;;;;;;;155.52;35.95;;;;;;;-7.91;100.00;96216.13;1020142;29;20114;-66
2021/01/11 02:16:56;;;;;;;104.57;35.45;;;;;;;-8.01;100.00;96205.16;1022290;28;20022;-66
2021/01/11 02:17:32;;;;;;;183.73;41.88;;;;;;;-7.89;100.00;96218.53;1020427;29;20032;-66
2021/01/11 02:18:05;;;;;;;125.55;37.55;;;;;;;-7.88;100.00;96220.94;1019919;29;20022;-66
2021/01/11 02:19:00;;;;;;;125.20;39.10;;;;;;;-7.96;100.00;96212.38;1022983;29;20027;-67
2021/01/11 02:20:04;;;;;;;169.32;38.17;;;;;;;-7.88;100.00;96215.03;1026094;28;20051;-67
2021/01/11 02:20:59;;;;;;;93.72;32.95;;;;;;;-7.87;100.00;96222.53;1018999;29;20039;-67
2021/01/11 02:21:57;;;;;;;127.53;36.80;;;;;;;-7.91;100.00;96221.22;1032323;28;20038;-66
2021/01/11 02:22:55;;;;;;;203.68;38.72;;;;;;;-8.02;100.00;96218.78;1031046;28;20034;-66
2021/01/11 02:23:48;;;;;;;104.18;32.67;;;;;;;-7.97;100.00;96216.66;1014215;29;20080;-67
2021/01/11 02:24:37;;;;;;;143.18;38.05;;;;;;;-7.94;100.00;96213.06;1011327;29;20017;-67
2021/01/11 02:25:40;;;;;;;231.18;39.33;;;;;;;-8.13;100.00;96214.66;1027598;28;20096;-68
2021/01/11 02:26:48;;;;;;;329.95;44.58;;;;;;;-8.20;100.00;96218.69;1028519;28;20026;-67
2021/01/11 02:27:33;;;;;;;137.73;33.17;;;;;;;-8.18;100.00;96209.19;1026843;28;20546;-66
2021/01/11 02:28:20;;;;;;;208.00;39.65;;;;;;;-8.15;100.00;96208.91;1028550;28;20700;-66
2021/01/11 02:29:06;;;;;;;300.52;42.00;;;;;;;-8.18;100.00;96218.53;1022908;29;20110;-66
2021/01/11 02:30:16;;;;;;;169.38;37.17;;;;;;;-8.25;100.00;96218.28;1018937;28;20511;-66